sensor_id;sensor_type;location;lat;lon;timestamp;P1;durP1;ratioP1;P2;durP2;ratioP2
15266;SDS011;7735;49.144;8.668;2023-07-02T00:02:14;3.70;;;2.30;;
15266;SDS011;7735;49.144;8.668;2023-07-02T00:04:43;2.90;;;2.23;;
15266;SDS011;7735;49.144;8.668;2023-07-02T00:07:10;3.30;;;2.20;;
15266;SDS011;7735;49.144;8.668;2023-07-02T00:09:36;3.63;;;2.20;;
15266;SDS011;7735;49.144;8.668;2023-07-02T00:12:03;3.13;;;2.13;;
15266;SDS011;7735;49.144;8.668;2023-07-02T00:14:38;3.93;;;2.20;;
15266;SDS011;7735;49.144;8.668;2023-07-02T00:17:05;2.40;;;2.10;;
15266;SDS011;7735;49.144;8.668;2023-07-02T00:19:31;3.60;;;2.50;;
15266;SDS011;7735;49.144;8.668;2023-07-02T00:21:59;2.63;;;2.10;;
15266;SDS011;7735;49.144;8.668;2023-07-02T00:24:27;2.93;;;2.13;;
15266;SDS011;7735;49.144;8.668;2023-07-02T00:26:54;3.80;;;2.30;;
15266;SDS011;7735;49.144;8.668;2023-07-02T00:29:21;4.40;;;2.33;;
15266;SDS011;7735;49.144;8.668;2023-07-02T00:31:48;3.10;;;1.97;;
15266;SDS011;7735;49.144;8.668;2023-07-02T00:34:14;1.77;;;1.63;;
15266;SDS011;7735;49.144;8.668;2023-07-02T00:36:44;3.70;;;2.07;;
15266;SDS011;7735;49.144;8.668;2023-07-02T00:39:12;3.53;;;1.97;;
15266;SDS011;7735;49.144;8.668;2023-07-02T00:41:39;1.97;;;1.77;;
15266;SDS011;7735;49.144;8.668;2023-07-02T00:44:07;2.67;;;1.97;;
15266;SDS011;7735;49.144;8.668;2023-07-02T00:46:35;2.47;;;1.87;;
15266;SDS011;7735;49.144;8.668;2023-07-02T00:49:02;4.00;;;2.00;;
15266;SDS011;7735;49.144;8.668;2023-07-02T00:51:31;2.80;;;2.00;;
15266;SDS011;7735;49.144;8.668;2023-07-02T00:53:58;4.23;;;1.80;;
15266;SDS011;7735;49.144;8.668;2023-07-02T00:56:30;4.67;;;2.40;;
15266;SDS011;7735;49.144;8.668;2023-07-02T00:58:57;3.77;;;1.93;;
15266;SDS011;7735;49.144;8.668;2023-07-02T01:01:26;2.70;;;2.10;;
15266;SDS011;7735;49.144;8.668;2023-07-02T01:03:58;2.10;;;1.90;;
15266;SDS011;7735;49.144;8.668;2023-07-02T01:06:27;2.50;;;1.70;;
15266;SDS011;7735;49.144;8.668;2023-07-02T01:09:00;2.93;;;2.27;;
15266;SDS011;7735;49.144;8.668;2023-07-02T01:11:30;3.07;;;1.73;;
15266;SDS011;7735;49.144;8.668;2023-07-02T01:14:01;2.20;;;2.00;;
15266;SDS011;7735;49.144;8.668;2023-07-02T01:16:30;3.07;;;2.20;;
15266;SDS011;7735;49.144;8.668;2023-07-02T01:18:58;2.87;;;2.13;;
15266;SDS011;7735;49.144;8.668;2023-07-02T01:21:33;2.43;;;2.07;;
15266;SDS011;7735;49.144;8.668;2023-07-02T01:24:00;3.37;;;2.20;;
15266;SDS011;7735;49.144;8.668;2023-07-02T01:26:28;3.10;;;2.30;;
15266;SDS011;7735;49.144;8.668;2023-07-02T01:28:58;2.40;;;1.80;;
15266;SDS011;7735;49.144;8.668;2023-07-02T01:31:25;2.30;;;1.97;;
15266;SDS011;7735;49.144;8.668;2023-07-02T01:33:55;2.07;;;1.70;;
15266;SDS011;7735;49.144;8.668;2023-07-02T01:36:22;2.20;;;1.87;;
15266;SDS011;7735;49.144;8.668;2023-07-02T01:38:50;2.30;;;1.70;;
15266;SDS011;7735;49.144;8.668;2023-07-02T01:41:17;2.67;;;1.73;;
15266;SDS011;7735;49.144;8.668;2023-07-02T01:43:44;3.03;;;2.07;;
15266;SDS011;7735;49.144;8.668;2023-07-02T01:46:10;3.17;;;2.10;;
15266;SDS011;7735;49.144;8.668;2023-07-02T01:48:37;3.00;;;2.00;;
15266;SDS011;7735;49.144;8.668;2023-07-02T01:51:04;2.57;;;2.20;;
15266;SDS011;7735;49.144;8.668;2023-07-02T01:53:30;3.10;;;2.13;;
15266;SDS011;7735;49.144;8.668;2023-07-02T01:55:59;1.87;;;1.30;;
15266;SDS011;7735;49.144;8.668;2023-07-02T01:58:26;3.80;;;1.97;;
15266;SDS011;7735;49.144;8.668;2023-07-02T02:00:52;4.37;;;2.13;;
15266;SDS011;7735;49.144;8.668;2023-07-02T02:03:19;2.60;;;1.90;;
15266;SDS011;7735;49.144;8.668;2023-07-02T02:05:47;3.67;;;2.20;;
15266;SDS011;7735;49.144;8.668;2023-07-02T02:08:14;3.57;;;2.20;;
15266;SDS011;7735;49.144;8.668;2023-07-02T02:10:41;6.70;;;2.63;;
15266;SDS011;7735;49.144;8.668;2023-07-02T02:13:09;4.83;;;2.47;;
15266;SDS011;7735;49.144;8.668;2023-07-02T02:15:35;3.37;;;2.13;;
15266;SDS011;7735;49.144;8.668;2023-07-02T02:18:02;3.90;;;2.23;;
15266;SDS011;7735;49.144;8.668;2023-07-02T02:20:29;2.87;;;2.00;;
15266;SDS011;7735;49.144;8.668;2023-07-02T02:22:56;3.30;;;2.10;;
15266;SDS011;7735;49.144;8.668;2023-07-02T02:25:22;7.93;;;2.60;;
15266;SDS011;7735;49.144;8.668;2023-07-02T02:27:50;3.97;;;2.83;;
15266;SDS011;7735;49.144;8.668;2023-07-02T02:30:18;4.10;;;2.17;;
15266;SDS011;7735;49.144;8.668;2023-07-02T02:32:44;4.50;;;2.20;;
15266;SDS011;7735;49.144;8.668;2023-07-02T02:35:17;7.13;;;2.20;;
15266;SDS011;7735;49.144;8.668;2023-07-02T02:37:44;5.50;;;2.70;;
15266;SDS011;7735;49.144;8.668;2023-07-02T02:40:11;6.07;;;2.60;;
15266;SDS011;7735;49.144;8.668;2023-07-02T02:42:38;6.17;;;2.50;;
15266;SDS011;7735;49.144;8.668;2023-07-02T02:45:05;3.83;;;2.40;;
15266;SDS011;7735;49.144;8.668;2023-07-02T02:47:34;4.20;;;2.60;;
15266;SDS011;7735;49.144;8.668;2023-07-02T02:50:01;3.30;;;2.20;;
15266;SDS011;7735;49.144;8.668;2023-07-02T02:52:28;5.23;;;2.63;;
15266;SDS011;7735;49.144;8.668;2023-07-02T02:54:54;4.67;;;2.67;;
15266;SDS011;7735;49.144;8.668;2023-07-02T02:57:21;4.77;;;2.50;;
15266;SDS011;7735;49.144;8.668;2023-07-02T02:59:48;5.33;;;2.70;;
15266;SDS011;7735;49.144;8.668;2023-07-02T03:02:14;4.03;;;2.20;;
15266;SDS011;7735;49.144;8.668;2023-07-02T03:04:42;3.30;;;2.40;;
15266;SDS011;7735;49.144;8.668;2023-07-02T03:07:13;4.43;;;2.43;;
15266;SDS011;7735;49.144;8.668;2023-07-02T03:09:40;4.47;;;2.40;;
15266;SDS011;7735;49.144;8.668;2023-07-02T03:12:06;5.47;;;2.50;;
15266;SDS011;7735;49.144;8.668;2023-07-02T03:14:34;4.90;;;2.70;;
15266;SDS011;7735;49.144;8.668;2023-07-02T03:17:00;4.70;;;2.93;;
15266;SDS011;7735;49.144;8.668;2023-07-02T03:19:28;4.17;;;2.63;;
15266;SDS011;7735;49.144;8.668;2023-07-02T03:21:56;4.70;;;2.57;;
15266;SDS011;7735;49.144;8.668;2023-07-02T03:24:22;5.83;;;2.33;;
15266;SDS011;7735;49.144;8.668;2023-07-02T03:26:49;5.30;;;2.50;;
15266;SDS011;7735;49.144;8.668;2023-07-02T03:29:16;4.20;;;2.60;;
15266;SDS011;7735;49.144;8.668;2023-07-02T03:31:44;4.83;;;2.90;;
15266;SDS011;7735;49.144;8.668;2023-07-02T03:34:11;5.87;;;3.07;;
15266;SDS011;7735;49.144;8.668;2023-07-02T03:36:38;4.67;;;2.53;;
15266;SDS011;7735;49.144;8.668;2023-07-02T03:39:06;5.00;;;3.17;;
15266;SDS011;7735;49.144;8.668;2023-07-02T03:41:33;4.37;;;2.60;;
15266;SDS011;7735;49.144;8.668;2023-07-02T03:43:59;4.70;;;2.80;;
15266;SDS011;7735;49.144;8.668;2023-07-02T03:46:26;4.17;;;2.77;;
15266;SDS011;7735;49.144;8.668;2023-07-02T03:48:52;2.90;;;2.10;;
15266;SDS011;7735;49.144;8.668;2023-07-02T03:51:19;3.77;;;2.27;;
15266;SDS011;7735;49.144;8.668;2023-07-02T03:53:49;4.83;;;2.33;;
15266;SDS011;7735;49.144;8.668;2023-07-02T03:56:17;4.13;;;2.23;;
15266;SDS011;7735;49.144;8.668;2023-07-02T03:58:47;3.70;;;2.23;;
15266;SDS011;7735;49.144;8.668;2023-07-02T04:01:14;4.37;;;2.30;;
15266;SDS011;7735;49.144;8.668;2023-07-02T04:03:41;5.40;;;2.50;;
15266;SDS011;7735;49.144;8.668;2023-07-02T04:06:08;5.67;;;2.80;;
15266;SDS011;7735;49.144;8.668;2023-07-02T04:08:36;3.67;;;2.20;;
15266;SDS011;7735;49.144;8.668;2023-07-02T04:11:03;2.50;;;2.03;;
15266;SDS011;7735;49.144;8.668;2023-07-02T04:13:38;3.83;;;2.37;;
15266;SDS011;7735;49.144;8.668;2023-07-02T04:16:06;3.23;;;2.10;;
15266;SDS011;7735;49.144;8.668;2023-07-02T04:18:33;3.70;;;2.30;;
15266;SDS011;7735;49.144;8.668;2023-07-02T04:21:00;6.67;;;2.60;;
15266;SDS011;7735;49.144;8.668;2023-07-02T04:23:28;4.70;;;2.10;;
15266;SDS011;7735;49.144;8.668;2023-07-02T04:25:55;4.80;;;2.47;;
15266;SDS011;7735;49.144;8.668;2023-07-02T04:28:21;2.63;;;1.87;;
15266;SDS011;7735;49.144;8.668;2023-07-02T04:30:49;5.70;;;2.30;;
15266;SDS011;7735;49.144;8.668;2023-07-02T04:33:18;4.17;;;2.00;;
15266;SDS011;7735;49.144;8.668;2023-07-02T04:35:44;3.73;;;2.20;;
15266;SDS011;7735;49.144;8.668;2023-07-02T04:38:11;3.03;;;2.03;;
15266;SDS011;7735;49.144;8.668;2023-07-02T04:40:38;6.17;;;1.97;;
15266;SDS011;7735;49.144;8.668;2023-07-02T04:43:06;3.83;;;1.80;;
15266;SDS011;7735;49.144;8.668;2023-07-02T04:45:33;4.70;;;2.40;;
15266;SDS011;7735;49.144;8.668;2023-07-02T04:48:14;4.47;;;2.13;;
15266;SDS011;7735;49.144;8.668;2023-07-02T04:50:47;4.57;;;2.17;;
15266;SDS011;7735;49.144;8.668;2023-07-02T04:53:14;3.20;;;2.00;;
15266;SDS011;7735;49.144;8.668;2023-07-02T04:55:41;6.10;;;2.60;;
15266;SDS011;7735;49.144;8.668;2023-07-02T04:58:08;5.50;;;2.73;;
15266;SDS011;7735;49.144;8.668;2023-07-02T05:00:34;7.83;;;2.90;;
15266;SDS011;7735;49.144;8.668;2023-07-02T05:03:01;4.90;;;2.60;;
15266;SDS011;7735;49.144;8.668;2023-07-02T05:05:43;5.90;;;2.27;;
15266;SDS011;7735;49.144;8.668;2023-07-02T05:08:12;7.97;;;3.33;;
15266;SDS011;7735;49.144;8.668;2023-07-02T05:10:39;3.30;;;2.33;;
15266;SDS011;7735;49.144;8.668;2023-07-02T05:13:06;6.63;;;3.20;;
15266;SDS011;7735;49.144;8.668;2023-07-02T05:15:32;3.97;;;2.50;;
15266;SDS011;7735;49.144;8.668;2023-07-02T05:17:59;5.77;;;3.10;;
15266;SDS011;7735;49.144;8.668;2023-07-02T05:20:29;7.37;;;3.70;;
15266;SDS011;7735;49.144;8.668;2023-07-02T05:22:57;6.33;;;3.17;;
15266;SDS011;7735;49.144;8.668;2023-07-02T05:25:24;6.30;;;3.47;;
15266;SDS011;7735;49.144;8.668;2023-07-02T05:30:39;6.93;;;2.80;;
15266;SDS011;7735;49.144;8.668;2023-07-02T05:33:06;6.40;;;3.67;;
15266;SDS011;7735;49.144;8.668;2023-07-02T05:35:33;9.40;;;4.13;;
15266;SDS011;7735;49.144;8.668;2023-07-02T05:38:01;10.97;;;5.00;;
15266;SDS011;7735;49.144;8.668;2023-07-02T05:40:27;11.43;;;5.03;;
15266;SDS011;7735;49.144;8.668;2023-07-02T05:42:54;9.57;;;4.87;;
15266;SDS011;7735;49.144;8.668;2023-07-02T05:45:21;6.37;;;3.30;;
15266;SDS011;7735;49.144;8.668;2023-07-02T05:47:48;10.17;;;4.93;;
15266;SDS011;7735;49.144;8.668;2023-07-02T05:50:15;11.33;;;5.30;;
15266;SDS011;7735;49.144;8.668;2023-07-02T05:52:41;5.30;;;2.63;;
15266;SDS011;7735;49.144;8.668;2023-07-02T05:55:10;10.13;;;5.47;;
15266;SDS011;7735;49.144;8.668;2023-07-02T05:57:36;8.37;;;3.77;;
15266;SDS011;7735;49.144;8.668;2023-07-02T06:00:04;9.00;;;4.47;;
15266;SDS011;7735;49.144;8.668;2023-07-02T06:02:31;9.30;;;4.53;;
15266;SDS011;7735;49.144;8.668;2023-07-02T06:04:58;10.93;;;4.73;;
15266;SDS011;7735;49.144;8.668;2023-07-02T06:07:26;10.80;;;5.17;;
15266;SDS011;7735;49.144;8.668;2023-07-02T06:09:54;9.60;;;4.87;;
15266;SDS011;7735;49.144;8.668;2023-07-02T06:12:22;6.20;;;3.90;;
15266;SDS011;7735;49.144;8.668;2023-07-02T06:14:49;8.30;;;3.73;;
15266;SDS011;7735;49.144;8.668;2023-07-02T06:17:19;8.73;;;4.73;;
15266;SDS011;7735;49.144;8.668;2023-07-02T06:19:47;8.00;;;3.73;;
15266;SDS011;7735;49.144;8.668;2023-07-02T06:22:14;10.53;;;5.63;;
15266;SDS011;7735;49.144;8.668;2023-07-02T06:24:41;9.00;;;4.30;;
15266;SDS011;7735;49.144;8.668;2023-07-02T06:27:07;9.40;;;4.30;;
15266;SDS011;7735;49.144;8.668;2023-07-02T06:29:35;10.47;;;5.33;;
15266;SDS011;7735;49.144;8.668;2023-07-02T06:32:02;8.80;;;4.97;;
15266;SDS011;7735;49.144;8.668;2023-07-02T06:34:30;12.67;;;6.40;;
15266;SDS011;7735;49.144;8.668;2023-07-02T06:36:59;14.63;;;6.10;;
15266;SDS011;7735;49.144;8.668;2023-07-02T06:39:35;12.13;;;5.70;;
15266;SDS011;7735;49.144;8.668;2023-07-02T06:42:15;15.77;;;7.00;;
15266;SDS011;7735;49.144;8.668;2023-07-02T06:44:43;12.87;;;6.43;;
15266;SDS011;7735;49.144;8.668;2023-07-02T06:47:10;6.67;;;2.90;;
15266;SDS011;7735;49.144;8.668;2023-07-02T06:49:37;13.93;;;6.60;;
15266;SDS011;7735;49.144;8.668;2023-07-02T06:52:07;8.30;;;4.53;;
15266;SDS011;7735;49.144;8.668;2023-07-02T06:54:33;6.00;;;3.43;;
15266;SDS011;7735;49.144;8.668;2023-07-02T06:57:00;10.73;;;5.20;;
15266;SDS011;7735;49.144;8.668;2023-07-02T06:59:27;9.73;;;3.57;;
15266;SDS011;7735;49.144;8.668;2023-07-02T07:01:55;11.63;;;5.50;;
15266;SDS011;7735;49.144;8.668;2023-07-02T07:04:22;8.37;;;4.10;;
15266;SDS011;7735;49.144;8.668;2023-07-02T07:06:48;9.43;;;4.47;;
15266;SDS011;7735;49.144;8.668;2023-07-02T07:09:18;9.47;;;5.73;;
15266;SDS011;7735;49.144;8.668;2023-07-02T07:11:45;11.60;;;5.83;;
15266;SDS011;7735;49.144;8.668;2023-07-02T07:14:11;10.93;;;5.77;;
15266;SDS011;7735;49.144;8.668;2023-07-02T07:16:38;7.93;;;4.20;;
15266;SDS011;7735;49.144;8.668;2023-07-02T07:19:15;8.93;;;3.70;;
15266;SDS011;7735;49.144;8.668;2023-07-02T07:21:42;13.07;;;6.17;;
15266;SDS011;7735;49.144;8.668;2023-07-02T07:24:09;8.83;;;5.57;;
15266;SDS011;7735;49.144;8.668;2023-07-02T07:26:39;9.70;;;5.70;;
15266;SDS011;7735;49.144;8.668;2023-07-02T07:29:09;11.57;;;5.63;;
15266;SDS011;7735;49.144;8.668;2023-07-02T07:31:36;11.93;;;3.53;;
15266;SDS011;7735;49.144;8.668;2023-07-02T07:34:02;12.23;;;4.47;;
15266;SDS011;7735;49.144;8.668;2023-07-02T07:36:30;11.63;;;5.47;;
15266;SDS011;7735;49.144;8.668;2023-07-02T07:38:57;12.70;;;6.18;;
15266;SDS011;7735;49.144;8.668;2023-07-02T07:41:24;13.43;;;7.33;;
15266;SDS011;7735;49.144;8.668;2023-07-02T07:43:50;12.27;;;5.80;;
15266;SDS011;7735;49.144;8.668;2023-07-02T07:46:17;12.03;;;6.17;;
15266;SDS011;7735;49.144;8.668;2023-07-02T07:48:44;12.97;;;6.53;;
15266;SDS011;7735;49.144;8.668;2023-07-02T07:51:11;16.20;;;7.33;;
15266;SDS011;7735;49.144;8.668;2023-07-02T07:53:39;12.83;;;5.40;;
15266;SDS011;7735;49.144;8.668;2023-07-02T07:56:05;15.77;;;7.33;;
15266;SDS011;7735;49.144;8.668;2023-07-02T07:58:32;17.77;;;8.90;;
15266;SDS011;7735;49.144;8.668;2023-07-02T08:00:59;8.10;;;5.00;;
15266;SDS011;7735;49.144;8.668;2023-07-02T08:03:25;17.57;;;7.70;;
15266;SDS011;7735;49.144;8.668;2023-07-02T08:05:52;10.57;;;5.20;;
15266;SDS011;7735;49.144;8.668;2023-07-02T08:08:19;16.47;;;7.47;;
15266;SDS011;7735;49.144;8.668;2023-07-02T08:10:47;12.63;;;7.40;;
15266;SDS011;7735;49.144;8.668;2023-07-02T08:13:15;14.77;;;7.30;;
15266;SDS011;7735;49.144;8.668;2023-07-02T08:15:42;17.27;;;8.20;;
15266;SDS011;7735;49.144;8.668;2023-07-02T08:18:21;13.70;;;6.53;;
15266;SDS011;7735;49.144;8.668;2023-07-02T08:20:48;18.23;;;7.67;;
15266;SDS011;7735;49.144;8.668;2023-07-02T08:23:14;17.80;;;7.10;;
15266;SDS011;7735;49.144;8.668;2023-07-02T08:25:41;18.63;;;7.03;;
15266;SDS011;7735;49.144;8.668;2023-07-02T08:28:09;15.50;;;8.07;;
15266;SDS011;7735;49.144;8.668;2023-07-02T08:30:36;17.93;;;8.57;;
15266;SDS011;7735;49.144;8.668;2023-07-02T08:33:08;18.67;;;9.20;;
15266;SDS011;7735;49.144;8.668;2023-07-02T08:35:35;16.43;;;8.47;;
15266;SDS011;7735;49.144;8.668;2023-07-02T08:38:02;17.33;;;7.60;;
15266;SDS011;7735;49.144;8.668;2023-07-02T08:40:29;16.10;;;7.70;;
15266;SDS011;7735;49.144;8.668;2023-07-02T08:42:55;8.67;;;4.33;;
15266;SDS011;7735;49.144;8.668;2023-07-02T08:45:24;18.73;;;10.23;;
15266;SDS011;7735;49.144;8.668;2023-07-02T08:47:51;20.50;;;9.83;;
15266;SDS011;7735;49.144;8.668;2023-07-02T08:50:21;14.50;;;7.53;;
15266;SDS011;7735;49.144;8.668;2023-07-02T08:52:48;18.83;;;9.07;;
15266;SDS011;7735;49.144;8.668;2023-07-02T08:55:18;19.67;;;9.23;;
15266;SDS011;7735;49.144;8.668;2023-07-02T08:57:47;20.23;;;9.87;;
15266;SDS011;7735;49.144;8.668;2023-07-02T09:00:16;20.00;;;10.10;;
15266;SDS011;7735;49.144;8.668;2023-07-02T09:02:45;10.23;;;5.07;;
15266;SDS011;7735;49.144;8.668;2023-07-02T09:05:12;16.27;;;8.40;;
15266;SDS011;7735;49.144;8.668;2023-07-02T09:07:45;17.53;;;8.10;;
15266;SDS011;7735;49.144;8.668;2023-07-02T09:10:24;20.10;;;9.97;;
15266;SDS011;7735;49.144;8.668;2023-07-02T09:13:02;23.70;;;10.37;;
15266;SDS011;7735;49.144;8.668;2023-07-02T09:15:34;21.00;;;8.00;;
15266;SDS011;7735;49.144;8.668;2023-07-02T09:18:13;24.60;;;11.10;;
15266;SDS011;7735;49.144;8.668;2023-07-02T09:20:40;17.07;;;7.80;;
15266;SDS011;7735;49.144;8.668;2023-07-02T09:23:07;20.50;;;8.83;;
15266;SDS011;7735;49.144;8.668;2023-07-02T09:25:36;15.53;;;7.53;;
15266;SDS011;7735;49.144;8.668;2023-07-02T09:28:13;18.80;;;9.87;;
15266;SDS011;7735;49.144;8.668;2023-07-02T09:30:48;18.33;;;9.00;;
15266;SDS011;7735;49.144;8.668;2023-07-02T09:33:17;21.53;;;10.13;;
15266;SDS011;7735;49.144;8.668;2023-07-02T09:35:44;21.53;;;10.10;;
15266;SDS011;7735;49.144;8.668;2023-07-02T09:38:11;19.73;;;8.80;;
15266;SDS011;7735;49.144;8.668;2023-07-02T09:40:42;15.37;;;7.93;;
15266;SDS011;7735;49.144;8.668;2023-07-02T09:43:11;20.73;;;9.60;;
15266;SDS011;7735;49.144;8.668;2023-07-02T09:45:40;21.93;;;7.67;;
15266;SDS011;7735;49.144;8.668;2023-07-02T09:48:09;23.20;;;11.17;;
15266;SDS011;7735;49.144;8.668;2023-07-02T09:50:41;11.90;;;6.97;;
15266;SDS011;7735;49.144;8.668;2023-07-02T09:53:09;19.03;;;8.83;;
15266;SDS011;7735;49.144;8.668;2023-07-02T09:55:37;19.60;;;11.63;;
15266;SDS011;7735;49.144;8.668;2023-07-02T09:58:04;23.97;;;10.13;;
15266;SDS011;7735;49.144;8.668;2023-07-02T10:00:31;20.83;;;9.83;;
15266;SDS011;7735;49.144;8.668;2023-07-02T10:02:58;20.57;;;8.67;;
15266;SDS011;7735;49.144;8.668;2023-07-02T10:05:26;18.60;;;9.70;;
15266;SDS011;7735;49.144;8.668;2023-07-02T10:07:55;15.30;;;6.83;;
15266;SDS011;7735;49.144;8.668;2023-07-02T10:10:26;20.80;;;10.00;;
15266;SDS011;7735;49.144;8.668;2023-07-02T10:12:53;18.17;;;8.07;;
15266;SDS011;7735;49.144;8.668;2023-07-02T10:15:24;19.03;;;9.73;;
15266;SDS011;7735;49.144;8.668;2023-07-02T10:17:54;19.13;;;10.13;;
15266;SDS011;7735;49.144;8.668;2023-07-02T10:20:32;19.00;;;9.30;;
15266;SDS011;7735;49.144;8.668;2023-07-02T10:23:06;18.60;;;9.47;;
15266;SDS011;7735;49.144;8.668;2023-07-02T10:25:34;19.33;;;8.90;;
15266;SDS011;7735;49.144;8.668;2023-07-02T10:28:13;21.40;;;9.80;;
15266;SDS011;7735;49.144;8.668;2023-07-02T10:30:41;18.67;;;8.67;;
15266;SDS011;7735;49.144;8.668;2023-07-02T10:33:08;11.47;;;5.43;;
15266;SDS011;7735;49.144;8.668;2023-07-02T10:35:36;21.83;;;11.47;;
15266;SDS011;7735;49.144;8.668;2023-07-02T10:38:03;18.03;;;9.23;;
15266;SDS011;7735;49.144;8.668;2023-07-02T10:40:32;18.77;;;9.57;;
15266;SDS011;7735;49.144;8.668;2023-07-02T10:42:59;21.37;;;9.73;;
15266;SDS011;7735;49.144;8.668;2023-07-02T10:45:32;19.40;;;9.23;;
15266;SDS011;7735;49.144;8.668;2023-07-02T10:48:01;24.87;;;10.97;;
15266;SDS011;7735;49.144;8.668;2023-07-02T10:50:45;16.17;;;8.27;;
15266;SDS011;7735;49.144;8.668;2023-07-02T10:53:25;14.87;;;7.33;;
15266;SDS011;7735;49.144;8.668;2023-07-02T10:55:53;19.17;;;8.60;;
15266;SDS011;7735;49.144;8.668;2023-07-02T10:58:20;17.10;;;8.63;;
15266;SDS011;7735;49.144;8.668;2023-07-02T11:00:47;21.27;;;11.07;;
15266;SDS011;7735;49.144;8.668;2023-07-02T11:03:22;11.73;;;4.97;;
15266;SDS011;7735;49.144;8.668;2023-07-02T11:05:49;16.53;;;8.27;;
15266;SDS011;7735;49.144;8.668;2023-07-02T11:08:17;19.37;;;10.97;;
15266;SDS011;7735;49.144;8.668;2023-07-02T11:17:06;19.30;;;9.30;;
15266;SDS011;7735;49.144;8.668;2023-07-02T11:19:33;16.83;;;8.00;;
15266;SDS011;7735;49.144;8.668;2023-07-02T11:22:00;17.73;;;8.00;;
15266;SDS011;7735;49.144;8.668;2023-07-02T11:24:28;19.90;;;9.77;;
15266;SDS011;7735;49.144;8.668;2023-07-02T11:26:58;17.53;;;9.47;;
15266;SDS011;7735;49.144;8.668;2023-07-02T11:29:28;21.47;;;10.67;;
15266;SDS011;7735;49.144;8.668;2023-07-02T11:32:04;19.27;;;11.27;;
15266;SDS011;7735;49.144;8.668;2023-07-02T11:34:34;18.53;;;7.97;;
15266;SDS011;7735;49.144;8.668;2023-07-02T11:37:19;20.27;;;9.87;;
15266;SDS011;7735;49.144;8.668;2023-07-02T11:39:46;20.90;;;10.47;;
15266;SDS011;7735;49.144;8.668;2023-07-02T11:42:14;21.20;;;10.77;;
15266;SDS011;7735;49.144;8.668;2023-07-02T11:44:40;19.07;;;10.30;;
15266;SDS011;7735;49.144;8.668;2023-07-02T11:47:07;10.97;;;6.13;;
15266;SDS011;7735;49.144;8.668;2023-07-02T11:49:34;23.53;;;9.50;;
15266;SDS011;7735;49.144;8.668;2023-07-02T11:52:02;21.37;;;8.80;;
15266;SDS011;7735;49.144;8.668;2023-07-02T11:54:28;15.90;;;8.70;;
15266;SDS011;7735;49.144;8.668;2023-07-02T11:56:56;20.93;;;9.63;;
15266;SDS011;7735;49.144;8.668;2023-07-02T11:59:24;15.93;;;9.20;;
15266;SDS011;7735;49.144;8.668;2023-07-02T12:01:51;12.80;;;6.60;;
15266;SDS011;7735;49.144;8.668;2023-07-02T12:04:17;21.30;;;8.73;;
15266;SDS011;7735;49.144;8.668;2023-07-02T12:06:44;24.10;;;10.60;;
15266;SDS011;7735;49.144;8.668;2023-07-02T12:09:10;16.93;;;9.20;;
15266;SDS011;7735;49.144;8.668;2023-07-02T12:11:49;15.40;;;7.03;;
15266;SDS011;7735;49.144;8.668;2023-07-02T12:14:22;13.43;;;5.67;;
15266;SDS011;7735;49.144;8.668;2023-07-02T12:16:50;11.93;;;6.30;;
15266;SDS011;7735;49.144;8.668;2023-07-02T12:19:16;18.43;;;8.93;;
15266;SDS011;7735;49.144;8.668;2023-07-02T12:21:43;19.30;;;9.40;;
15266;SDS011;7735;49.144;8.668;2023-07-02T12:24:10;20.67;;;9.57;;
15266;SDS011;7735;49.144;8.668;2023-07-02T12:26:37;19.47;;;11.33;;
15266;SDS011;7735;49.144;8.668;2023-07-02T12:29:05;16.27;;;9.30;;
15266;SDS011;7735;49.144;8.668;2023-07-02T12:31:32;23.57;;;12.50;;
15266;SDS011;7735;49.144;8.668;2023-07-02T12:34:07;20.30;;;10.10;;
15266;SDS011;7735;49.144;8.668;2023-07-02T12:36:34;15.17;;;9.03;;
15266;SDS011;7735;49.144;8.668;2023-07-02T12:39:00;20.83;;;8.73;;
15266;SDS011;7735;49.144;8.668;2023-07-02T12:41:27;22.33;;;11.98;;
15266;SDS011;7735;49.144;8.668;2023-07-02T12:43:55;24.43;;;10.53;;
15266;SDS011;7735;49.144;8.668;2023-07-02T12:46:22;19.00;;;8.83;;
15266;SDS011;7735;49.144;8.668;2023-07-02T12:48:49;19.07;;;10.03;;
15266;SDS011;7735;49.144;8.668;2023-07-02T12:51:17;17.70;;;8.50;;
15266;SDS011;7735;49.144;8.668;2023-07-02T12:53:44;23.10;;;11.23;;
15266;SDS011;7735;49.144;8.668;2023-07-02T12:56:10;18.23;;;8.07;;
15266;SDS011;7735;49.144;8.668;2023-07-02T12:58:37;14.60;;;6.70;;
15266;SDS011;7735;49.144;8.668;2023-07-02T13:01:04;23.03;;;9.27;;
15266;SDS011;7735;49.144;8.668;2023-07-02T13:03:33;18.37;;;9.20;;
15266;SDS011;7735;49.144;8.668;2023-07-02T13:06:00;20.17;;;10.93;;
15266;SDS011;7735;49.144;8.668;2023-07-02T13:08:28;19.00;;;10.37;;
15266;SDS011;7735;49.144;8.668;2023-07-02T13:10:55;17.37;;;8.67;;
15266;SDS011;7735;49.144;8.668;2023-07-02T13:13:22;20.53;;;10.00;;
15266;SDS011;7735;49.144;8.668;2023-07-02T13:15:48;20.57;;;8.83;;
15266;SDS011;7735;49.144;8.668;2023-07-02T13:18:15;21.00;;;9.90;;
15266;SDS011;7735;49.144;8.668;2023-07-02T13:21:01;18.43;;;8.03;;
15266;SDS011;7735;49.144;8.668;2023-07-02T13:23:43;21.27;;;9.07;;
15266;SDS011;7735;49.144;8.668;2023-07-02T13:26:10;22.87;;;9.47;;
15266;SDS011;7735;49.144;8.668;2023-07-02T13:28:36;19.23;;;8.30;;
15266;SDS011;7735;49.144;8.668;2023-07-02T13:31:03;19.70;;;9.60;;
15266;SDS011;7735;49.144;8.668;2023-07-02T13:33:30;22.67;;;9.50;;
15266;SDS011;7735;49.144;8.668;2023-07-02T13:35:57;18.87;;;10.10;;
15266;SDS011;7735;49.144;8.668;2023-07-02T13:38:24;17.90;;;7.20;;
15266;SDS011;7735;49.144;8.668;2023-07-02T13:40:52;19.93;;;7.40;;
15266;SDS011;7735;49.144;8.668;2023-07-02T13:43:19;18.37;;;9.13;;
15266;SDS011;7735;49.144;8.668;2023-07-02T13:45:45;18.43;;;9.80;;
15266;SDS011;7735;49.144;8.668;2023-07-02T13:48:12;16.60;;;9.57;;
15266;SDS011;7735;49.144;8.668;2023-07-02T13:50:39;11.33;;;6.23;;
15266;SDS011;7735;49.144;8.668;2023-07-02T13:56:06;21.23;;;8.77;;
15266;SDS011;7735;49.144;8.668;2023-07-02T13:58:46;13.67;;;7.63;;
15266;SDS011;7735;49.144;8.668;2023-07-02T14:01:24;17.80;;;9.37;;
15266;SDS011;7735;49.144;8.668;2023-07-02T14:03:51;19.57;;;8.97;;
15266;SDS011;7735;49.144;8.668;2023-07-02T14:06:19;21.13;;;9.77;;
15266;SDS011;7735;49.144;8.668;2023-07-02T14:08:46;19.43;;;10.40;;
15266;SDS011;7735;49.144;8.668;2023-07-02T14:11:12;15.53;;;8.70;;
15266;SDS011;7735;49.144;8.668;2023-07-02T14:13:39;15.07;;;7.07;;
15266;SDS011;7735;49.144;8.668;2023-07-02T14:16:07;20.80;;;10.40;;
15266;SDS011;7735;49.144;8.668;2023-07-02T14:18:41;15.53;;;8.23;;
15266;SDS011;7735;49.144;8.668;2023-07-02T14:21:08;16.80;;;7.67;;
15266;SDS011;7735;49.144;8.668;2023-07-02T14:23:35;19.37;;;9.57;;
15266;SDS011;7735;49.144;8.668;2023-07-02T14:26:01;15.93;;;9.83;;
15266;SDS011;7735;49.144;8.668;2023-07-02T14:28:29;11.63;;;6.00;;
15266;SDS011;7735;49.144;8.668;2023-07-02T14:30:56;20.50;;;9.53;;
15266;SDS011;7735;49.144;8.668;2023-07-02T14:33:25;16.53;;;6.20;;
15266;SDS011;7735;49.144;8.668;2023-07-02T14:35:52;17.57;;;8.77;;
15266;SDS011;7735;49.144;8.668;2023-07-02T14:38:21;20.40;;;9.43;;
15266;SDS011;7735;49.144;8.668;2023-07-02T14:40:55;18.30;;;8.53;;
15266;SDS011;7735;49.144;8.668;2023-07-02T14:43:22;20.63;;;11.73;;
15266;SDS011;7735;49.144;8.668;2023-07-02T14:45:52;18.90;;;11.05;;
15266;SDS011;7735;49.144;8.668;2023-07-02T14:48:21;20.37;;;11.83;;
15266;SDS011;7735;49.144;8.668;2023-07-02T14:50:50;22.40;;;10.50;;
15266;SDS011;7735;49.144;8.668;2023-07-02T14:53:22;14.87;;;7.47;;
15266;SDS011;7735;49.144;8.668;2023-07-02T14:55:53;19.73;;;8.77;;
15266;SDS011;7735;49.144;8.668;2023-07-02T14:58:21;21.47;;;9.33;;
15266;SDS011;7735;49.144;8.668;2023-07-02T15:01:24;14.93;;;7.67;;
15266;SDS011;7735;49.144;8.668;2023-07-02T15:03:51;12.93;;;5.93;;
15266;SDS011;7735;49.144;8.668;2023-07-02T15:06:19;18.97;;;8.70;;
15266;SDS011;7735;49.144;8.668;2023-07-02T15:08:46;14.77;;;6.50;;
15266;SDS011;7735;49.144;8.668;2023-07-02T15:11:14;18.47;;;9.37;;
15266;SDS011;7735;49.144;8.668;2023-07-02T15:13:41;14.55;;;8.00;;